Time;durP1;ratioP1;P1;durP2;ratioP2;P2;SDS_P1;SDS_P2;PMS_P1;PMS_P2;Temp;Humidity;BMP_temperature;BMP_pressure;BME280_temperature;BME280_humidity;BME280_pressure;Samples;Min_cycle;Max_cycle;Signal;HPM_P1;HPM_P2
2022/12/17 13:06:43;;;;;;;21.05;15.23;;;;;;;-3.35;100.00;96509.13;5092206;28;24426;-73
2022/12/17 13:09:32;;;;;;;21.25;14.63;;;;;;;-2.68;100.00;96501.66;5092998;28;24441;-73
2022/12/17 13:12:16;;;;;;;18.88;15.00;;;;;;;-2.49;100.00;96508.41;5090303;28;25032;-73
2022/12/17 13:14:49;;;;;;;20.50;15.27;;;;;;;-2.60;100.00;96501.66;5097743;28;24434;-73
2022/12/17 13:17:27;;;;;;;16.98;13.75;;;;;;;-2.43;100.00;96502.50;5098334;28;24525;-72
2022/12/17 13:20:15;;;;;;;18.60;15.02;;;;;;;-2.58;100.00;96503.34;5098744;28;24430;-73
2022/12/17 13:22:50;;;;;;;20.48;15.25;;;;;;;-2.64;100.00;96505.03;5098604;28;24441;-73
2022/12/17 13:25:19;;;;;;;19.52;15.00;;;;;;;-2.77;100.00;96491.53;5097608;28;24453;-73
2022/12/17 13:27:46;;;;;;;24.85;16.60;;;;;;;-2.74;100.00;96491.53;5093749;28;24518;-73
2022/12/17 13:30:29;;;;;;;19.40;14.93;;;;;;;-2.57;100.00;96494.06;5088409;28;24898;-73
2022/12/17 13:33:12;;;;;;;20.50;14.77;;;;;;;-2.69;100.00;96494.91;5088976;28;24919;-72
2022/12/17 13:35:44;;;;;;;19.30;14.90;;;;;;;-2.90;100.00;96484.75;5085546;28;24435;-74
2022/12/17 13:38:20;;;;;;;19.30;15.30;;;;;;;-2.88;100.00;96485.59;5093806;28;24788;-73
2022/12/17 13:40:58;;;;;;;17.80;14.20;;;;;;;-3.02;100.00;96483.03;5096957;27;24797;-73
2022/12/17 13:43:30;;;;;;;19.88;14.98;;;;;;;-2.93;100.00;96491.50;5097567;28;24469;-72
2022/12/17 13:45:57;;;;;;;22.00;16.38;;;;;;;-3.03;100.00;96487.25;5096411;28;24450;-72
2022/12/17 13:48:25;;;;;;;20.73;18.02;;;;;;;-2.96;100.00;96496.56;5097359;28;24429;-72
2022/12/17 13:50:58;;;;;;;25.40;18.73;;;;;;;-2.82;100.00;96499.09;5098639;27;24998;-72
2022/12/17 13:53:26;;;;;;;24.90;19.47;;;;;;;-2.96;100.00;96496.56;5104483;28;24498;-72
2022/12/17 13:55:54;;;;;;;25.58;19.15;;;;;;;-2.97;100.00;96502.47;5099661;28;24425;-72
2022/12/17 13:58:23;;;;;;;27.20;21.50;;;;;;;-3.12;100.00;96512.56;5102324;28;24437;-72
2022/12/17 14:00:50;;;;;;;27.75;20.55;;;;;;;-3.20;100.00;96511.72;5101060;28;24445;-72
2022/12/17 14:03:22;;;;;;;26.75;20.70;;;;;;;-3.42;100.00;96518.38;5108155;28;24437;-72
2022/12/17 14:05:49;;;;;;;27.05;20.60;;;;;;;-3.22;100.00;96524.38;5104706;28;24453;-72
2022/12/17 14:08:19;;;;;;;30.80;21.63;;;;;;;-3.17;100.00;96519.31;5100925;27;24433;-72
2022/12/17 14:10:51;;;;;;;30.20;22.67;;;;;;;-3.23;100.00;96524.38;5103434;28;24465;-72
2022/12/17 14:13:17;;;;;;;30.55;22.85;;;;;;;-3.29;100.00;96520.13;5091226;27;25058;-72
2022/12/17 14:15:50;;;;;;;34.03;22.95;;;;;;;-3.53;100.00;96525.94;5091770;28;24425;-72
2022/12/17 14:18:19;;;;;;;27.98;21.60;;;;;;;-3.61;100.00;96532.66;5102641;28;24433;-72
2022/12/17 14:20:47;;;;;;;32.75;21.75;;;;;;;-3.55;100.00;96539.47;5094003;28;24433;-72
2022/12/17 14:23:21;;;;;;;29.70;20.52;;;;;;;-3.58;100.00;96531.84;5094249;28;24515;-72
2022/12/17 14:25:48;;;;;;;30.45;20.60;;;;;;;-3.27;100.00;96541.25;5098413;28;24816;-72
2022/12/17 14:28:23;;;;;;;23.25;19.45;;;;;;;-3.11;100.00;96539.63;5103600;28;24506;-72
2022/12/17 14:30:50;;;;;;;29.15;20.40;;;;;;;-3.29;100.00;96542.94;5099690;28;24816;-72
2022/12/17 14:33:28;;;;;;;27.13;20.73;;;;;;;-3.60;100.00;96549.53;5095874;27;24979;-71
2022/12/17 14:35:56;;;;;;;28.33;21.15;;;;;;;-3.74;100.00;96549.50;5098480;28;24440;-72
2022/12/17 14:38:25;;;;;;;27.42;20.33;;;;;;;-3.71;100.00;96549.50;5098500;28;24805;-73
2022/12/17 14:40:52;;;;;;;27.02;20.23;;;;;;;-3.86;100.00;96544.34;5105864;28;25318;-72
2022/12/17 14:43:24;;;;;;;27.60;20.17;;;;;;;-4.07;100.00;96546.75;5099093;28;24438;-73
2022/12/17 14:49:02;;;;;;;29.52;22.05;;;;;;;-3.85;100.00;96553.66;5014470;28;24562;-74
2022/12/17 14:51:32;;;;;;;26.95;20.90;;;;;;;-4.03;100.00;96553.53;5084351;28;24441;-74
2022/12/17 14:54:20;;;;;;;25.67;19.50;;;;;;;-3.99;100.00;96551.03;5089062;28;24438;-74
2022/12/17 14:56:49;;;;;;;27.17;18.08;;;;;;;-3.81;100.00;96552.81;5104323;28;24470;-73
2022/12/17 14:59:30;;;;;;;23.10;18.35;;;;;;;-4.04;100.00;96549.28;5103755;28;24438;-73
2022/12/17 15:01:59;;;;;;;23.95;18.13;;;;;;;-4.30;100.00;96559.22;5086484;28;24430;-73
2022/12/17 15:04:25;;;;;;;24.77;17.83;;;;;;;-4.52;100.00;96550.66;5088256;28;25022;-73
2022/12/17 15:06:54;;;;;;;24.33;18.45;;;;;;;-4.17;100.00;96554.28;5096028;28;24429;-74
2022/12/17 15:09:22;;;;;;;28.77;18.95;;;;;;;-4.24;100.00;96549.16;5100868;28;24433;-73
2022/12/17 15:11:49;;;;;;;24.92;17.55;;;;;;;-4.33;100.00;96564.28;5099804;28;24441;-73
2022/12/17 15:14:15;;;;;;;22.17;17.33;;;;;;;-4.47;100.00;96559.94;5099870;28;24467;-73
2022/12/17 15:16:42;;;;;;;24.13;17.45;;;;;;;-4.52;100.00;96566.66;5083234;28;24437;-73
2022/12/17 15:19:08;;;;;;;23.10;18.48;;;;;;;-4.54;100.00;96570.84;5096577;28;24438;-73
2022/12/17 15:21:35;;;;;;;26.60;19.48;;;;;;;-4.49;100.00;96570.88;5089238;28;24445;-73
2022/12/17 15:24:01;;;;;;;24.73;18.98;;;;;;;-4.35;100.00;96574.38;5085544;28;24440;-73
2022/12/17 15:26:29;;;;;;;25.90;21.23;;;;;;;-4.43;100.00;96565.88;5087676;28;24457;-73
2022/12/17 15:28:56;;;;;;;30.98;21.02;;;;;;;-4.53;100.00;96567.47;5083966;28;24442;-74
2022/12/17 15:31:22;;;;;;;36.38;20.88;;;;;;;-4.59;100.00;96569.13;5092692;28;24430;-73
2022/12/17 15:33:49;;;;;;;26.27;19.75;;;;;;;-4.67;100.00;96572.44;5094430;28;24461;-73
2022/12/17 15:36:15;;;;;;;25.63;20.98;;;;;;;-4.58;100.00;96580.91;5097586;28;24446;-73
2022/12/17 15:38:42;;;;;;;29.85;21.17;;;;;;;-4.47;100.00;96576.81;5097280;28;24437;-73
2022/12/17 15:43:54;;;;;;;27.77;20.30;;;;;;;-4.66;100.00;96588.44;5090992;28;25053;-72
2022/12/17 15:46:20;;;;;;;101.97;52.13;;;;;;;-5.01;100.00;96598.16;5096918;28;24457;-73
2022/12/17 15:48:47;;;;;;;88.68;48.47;;;;;;;-5.15;100.00;96596.34;5096639;28;24499;-73
2022/12/17 15:51:13;;;;;;;83.40;48.05;;;;;;;-5.17;100.00;96598.00;5097536;28;24437;-73
2022/12/17 15:53:40;;;;;;;85.68;44.55;;;;;;;-5.21;100.00;96590.38;5099050;28;24445;-73
2022/12/17 15:56:07;;;;;;;68.22;41.08;;;;;;;-5.20;100.00;96590.38;5096722;28;24433;-72
2022/12/17 15:58:34;;;;;;;56.10;34.08;;;;;;;-5.30;100.00;96596.19;5092891;28;24438;-73
2022/12/17 16:01:05;;;;;;;48.58;31.25;;;;;;;-5.33;100.00;96596.13;5109105;28;24433;-73
2022/12/17 16:03:32;;;;;;;48.70;30.35;;;;;;;-5.34;100.00;96596.94;5104574;28;24449;-73
2022/12/17 16:06:00;;;;;;;42.30;29.05;;;;;;;-5.36;100.00;96606.19;5097928;28;24494;-71
2022/12/17 16:08:27;;;;;;;33.00;24.10;;;;;;;-5.30;100.00;96605.41;5102033;28;24440;-71
2022/12/17 16:10:53;;;;;;;30.98;21.55;;;;;;;-5.50;100.00;96602.63;5096434;28;24434;-72
2022/12/17 16:13:20;;;;;;;32.75;23.55;;;;;;;-5.72;100.00;96611.59;5082972;28;24450;-71
2022/12/17 16:15:56;;;;;;;30.38;22.98;;;;;;;-5.67;100.00;96618.41;4998775;28;24454;-71
2022/12/17 16:18:23;;;;;;;28.37;21.63;;;;;;;-5.61;100.00;96618.47;5002396;28;24834;-71
2022/12/17 16:20:50;;;;;;;29.10;22.40;;;;;;;-5.56;100.00;96615.16;4981768;28;24751;-71
2022/12/17 16:23:17;;;;;;;41.53;23.60;;;;;;;-5.57;100.00;96603.38;5044823;28;24594;-71
2022/12/17 16:25:43;;;;;;;37.42;23.15;;;;;;;-5.55;100.00;96607.63;4987444;28;24973;-71
2022/12/17 16:28:10;;;;;;;28.65;21.75;;;;;;;-5.75;100.00;96603.97;5002491;28;24815;-71
2022/12/17 16:30:36;;;;;;;29.65;23.38;;;;;;;-5.88;100.00;96608.00;4972963;28;25021;-71
2022/12/17 16:33:03;;;;;;;50.08;28.17;;;;;;;-5.75;100.00;96609.88;4984532;28;24453;-71
2022/12/17 16:35:31;;;;;;;35.70;27.17;;;;;;;-5.92;100.00;96608.84;5007683;28;24434;-71
2022/12/17 16:37:57;;;;;;;38.35;27.65;;;;;;;-5.76;100.00;96600.59;5029376;28;24805;-71
2022/12/17 16:40:24;;;;;;;37.47;28.42;;;;;;;-5.92;100.00;96609.66;5010256;28;24449;-71
2022/12/17 16:42:50;;;;;;;44.60;27.67;;;;;;;-6.05;100.00;96612.81;5027388;28;24487;-70
2022/12/17 16:45:17;;;;;;;43.78;28.27;;;;;;;-6.68;100.00;96616.84;5043801;28;24460;-70
2022/12/17 16:47:43;;;;;;;41.60;29.55;;;;;;;-6.57;100.00;96614.50;5037201;28;24777;-70
2022/12/17 16:50:10;;;;;;;41.13;29.13;;;;;;;-6.57;100.00;96614.50;5013831;28;24658;-70
2022/12/17 16:52:38;;;;;;;46.63;31.60;;;;;;;-6.48;100.00;96612.16;5030978;28;24449;-70
2022/12/17 16:55:05;;;;;;;43.92;29.45;;;;;;;-6.53;100.00;96623.81;5021547;28;24441;-70
2022/12/17 16:57:31;;;;;;;46.88;31.02;;;;;;;-6.51;100.00;96624.72;5028903;28;24441;-71
2022/12/17 16:59:58;;;;;;;39.13;29.53;;;;;;;-6.52;100.00;96629.72;4958224;28;24434;-70
2022/12/17 17:02:24;;;;;;;48.80;30.33;;;;;;;-6.50;100.00;96625.53;5039262;28;25601;-71
2022/12/17 17:04:51;;;;;;;37.95;30.00;;;;;;;-6.48;100.00;96628.97;4989268;28;24843;-71
2022/12/17 17:07:17;;;;;;;49.20;30.25;;;;;;;-6.49;100.00;96624.72;5033686;28;24457;-71
2022/12/17 17:09:45;;;;;;;44.90;30.33;;;;;;;-6.63;100.00;96625.34;4995526;28;24809;-70
2022/12/17 17:12:12;;;;;;;40.53;30.40;;;;;;;-6.61;100.00;96631.25;4927751;28;25026;-71
2022/12/17 17:14:39;;;;;;;37.28;28.42;;;;;;;-6.70;100.00;96626.06;5044594;28;25382;-71
2022/12/17 17:17:05;;;;;;;38.85;28.75;;;;;;;-6.72;100.00;96625.16;4996652;28;24978;-71
2022/12/17 17:19:32;;;;;;;43.08;27.75;;;;;;;-6.80;100.00;96630.91;5041440;28;24826;-71
2022/12/17 17:21:58;;;;;;;39.78;27.20;;;;;;;-6.77;100.00;96638.53;5005637;28;24438;-71
2022/12/17 17:24:25;;;;;;;46.53;33.95;;;;;;;-6.86;100.00;96641.69;5009246;28;24438;-71
2022/12/17 17:26:54;;;;;;;60.88;40.20;;;;;;;-6.80;100.00;96638.47;4979189;28;24673;-71
2022/12/17 17:29:21;;;;;;;73.15;42.25;;;;;;;-6.78;100.00;96640.19;5011230;28;24857;-71
2022/12/17 17:31:47;;;;;;;68.82;42.85;;;;;;;-6.80;100.00;96641.81;5015494;28;24667;-71
2022/12/17 17:34:15;;;;;;;45.20;33.53;;;;;;;-6.79;100.00;96635.94;5040500;28;24484;-71
2022/12/17 17:36:42;;;;;;;48.40;33.75;;;;;;;-6.78;100.00;96644.38;5032198;28;24435;-71
2022/12/17 17:39:09;;;;;;;46.83;34.10;;;;;;;-6.83;100.00;96644.28;5046290;28;24907;-71
2022/12/17 17:41:35;;;;;;;41.45;30.95;;;;;;;-6.87;100.00;96650.06;5056285;28;25155;-71
2022/12/17 17:44:05;;;;;;;42.33;29.80;;;;;;;-6.81;100.00;96650.22;5041086;28;24460;-71
2022/12/17 17:46:32;;;;;;;41.67;27.33;;;;;;;-6.79;100.00;96652.75;5031175;28;24646;-71
2022/12/17 17:49:00;;;;;;;35.92;24.20;;;;;;;-6.99;100.00;96647.34;5054972;28;24892;-71
2022/12/17 17:51:29;;;;;;;35.20;24.75;;;;;;;-7.13;100.00;96647.06;5039877;28;24890;-70
2022/12/17 17:53:56;;;;;;;34.63;24.88;;;;;;;-7.14;100.00;96643.69;5041252;28;24560;-70
2022/12/17 17:56:25;;;;;;;34.15;26.63;;;;;;;-7.10;100.00;96647.97;4991946;28;24797;-70
2022/12/17 17:58:54;;;;;;;43.40;31.40;;;;;;;-7.19;100.00;96641.91;5046527;28;24770;-70
2022/12/17 18:01:24;;;;;;;50.90;34.85;;;;;;;-7.24;100.00;96641.81;4988020;28;24866;-70
2022/12/17 18:03:51;;;;;;;49.05;36.97;;;;;;;-6.87;100.00;96638.34;5042894;28;24449;-71
2022/12/17 18:06:18;;;;;;;59.40;39.88;;;;;;;-7.02;100.00;96635.53;5009004;28;24508;-70
2022/12/17 18:08:45;;;;;;;64.50;45.00;;;;;;;-7.29;100.00;96635.84;5022633;28;25505;-70
2022/12/17 18:11:15;;;;;;;65.60;42.70;;;;;;;-7.43;100.00;96634.72;5020538;28;24633;-70
2022/12/17 18:13:55;;;;;;;48.00;33.83;;;;;;;-7.27;100.00;96644.25;5044491;27;24495;-70
2022/12/17 18:16:25;;;;;;;47.92;30.40;;;;;;;-7.53;100.00;96652.94;5031417;28;24562;-70
2022/12/17 18:18:54;;;;;;;41.95;29.58;;;;;;;-7.76;100.00;96645.75;5030121;28;24860;-70
2022/12/17 18:21:21;;;;;;;49.63;29.75;;;;;;;-7.84;100.00;96658.16;5037272;28;24505;-71
2022/12/17 18:23:48;;;;;;;47.60;33.10;;;;;;;-7.79;100.00;96660.75;5057398;28;25048;-70
2022/12/17 18:26:17;;;;;;;47.35;33.58;;;;;;;-7.62;100.00;96662.00;5020824;28;24451;-70
2022/12/17 18:28:44;;;;;;;48.50;32.67;;;;;;;-7.71;100.00;96666.84;5046896;28;25079;-70
2022/12/17 18:31:13;;;;;;;45.10;31.85;;;;;;;-7.83;100.00;96669.91;5045330;28;25327;-70
2022/12/17 18:33:43;;;;;;;57.00;32.88;;;;;;;-7.85;100.00;96670.69;5048991;28;24955;-71
2022/12/17 18:36:11;;;;;;;71.10;45.22;;;;;;;-7.92;100.00;96669.69;5021085;28;25073;-70
2022/12/17 18:38:38;;;;;;;59.22;39.88;;;;;;;-7.83;100.00;96661.50;5050832;28;24759;-70
2022/12/17 18:43:21;;;;;;;58.87;38.87;;;;;;;-7.78;100.00;96669.19;5019196;28;24976;-70
2022/12/17 18:43:52;;;;;;;54.50;37.00;;;;;;;-7.71;100.00;96666.84;5023140;28;24425;-71
2022/12/17 18:46:19;;;;;;;51.20;34.97;;;;;;;-7.71;100.00;96673.50;5005936;28;24484;-70
2022/12/17 18:48:50;;;;;;;58.55;37.22;;;;;;;-7.73;100.00;96681.03;4648530;28;25111;-72
2022/12/17 18:51:17;;;;;;;54.30;36.90;;;;;;;-7.94;100.00;96688.91;4488776;28;25085;-72
2022/12/17 18:53:44;;;;;;;53.58;36.95;;;;;;;-8.00;100.00;96693.81;4504489;28;25615;-72
2022/12/17 18:56:13;;;;;;;54.67;36.08;;;;;;;-8.08;100.00;96696.16;4532262;28;24442;-72
2022/12/17 18:58:41;;;;;;;48.60;34.42;;;;;;;-8.00;100.00;96703.03;4510661;28;25666;-72
2022/12/17 19:01:08;;;;;;;56.28;36.65;;;;;;;-7.96;100.00;96692.22;4485775;28;25580;-72
2022/12/17 19:03:35;;;;;;;51.92;35.25;;;;;;;-7.81;100.00;96697.59;4504629;28;25601;-73
2022/12/17 19:06:08;;;;;;;47.67;33.38;;;;;;;-7.96;100.00;96703.13;4484618;28;25676;-72
2022/12/17 19:08:39;;;;;;;44.42;31.00;;;;;;;-7.99;100.00;96708.09;4475987;28;25258;-72
2022/12/17 19:11:07;;;;;;;43.63;32.03;;;;;;;-8.23;100.00;96709.97;4470381;28;25892;-72
2022/12/17 19:13:35;;;;;;;40.78;31.38;;;;;;;-8.32;100.00;96721.50;4518847;28;25261;-72
2022/12/17 19:16:10;;;;;;;43.45;31.38;;;;;;;-8.20;100.00;96713.41;4750746;28;24789;-72
2022/12/17 19:18:37;;;;;;;38.58;30.58;;;;;;;-8.05;100.00;96716.31;5044110;28;24535;-72
2022/12/17 19:21:06;;;;;;;57.05;36.00;;;;;;;-7.87;100.00;96715.06;4969834;28;24535;-72
2022/12/17 19:23:34;;;;;;;58.10;34.95;;;;;;;-8.05;100.00;96718.81;5043266;28;24442;-71
2022/12/17 19:26:08;;;;;;;49.50;33.63;;;;;;;-8.31;100.00;96725.72;4989908;28;24977;-71
2022/12/17 19:28:35;;;;;;;48.78;32.10;;;;;;;-8.32;100.00;96734.06;5001447;28;24836;-71
2022/12/17 19:31:02;;;;;;;43.92;30.63;;;;;;;-8.33;100.00;96726.50;4982586;27;25185;-71
2022/12/17 19:33:28;;;;;;;49.15;34.60;;;;;;;-8.21;100.00;96724.28;5006605;28;24442;-71
2022/12/17 19:36:03;;;;;;;53.70;35.67;;;;;;;-8.17;100.00;96733.59;5022588;28;24446;-70
2022/12/17 19:38:31;;;;;;;58.42;35.65;;;;;;;-8.37;100.00;96728.09;5033287;28;24453;-73
2022/12/17 19:41:02;;;;;;;54.95;35.60;;;;;;;-8.59;100.00;96734.25;5031468;28;25208;-73
2022/12/17 19:43:29;;;;;;;50.50;34.60;;;;;;;-8.66;100.00;96744.94;5034669;28;24438;-73
2022/12/17 19:46:01;;;;;;;52.70;32.50;;;;;;;-8.67;100.00;96740.72;5061525;28;24453;-74
2022/12/17 19:48:27;;;;;;;50.80;35.70;;;;;;;-8.34;100.00;96740.75;5048805;28;25355;-73
2022/12/17 19:50:56;;;;;;;56.65;36.65;;;;;;;-8.20;100.00;96740.22;5048783;28;24437;-73
2022/12/17 19:53:25;;;;;;;53.65;36.40;;;;;;;-8.44;100.00;96736.31;4590039;28;25290;-72
2022/12/17 19:55:54;;;;;;;67.57;40.28;;;;;;;-8.77;100.00;96729.56;4613907;28;25287;-74
2022/12/17 19:58:21;;;;;;;57.08;39.55;;;;;;;-8.84;100.00;96734.38;4730149;28;25528;-74
2022/12/17 20:00:51;;;;;;;53.30;37.08;;;;;;;-8.93;100.00;96734.16;4632014;28;25270;-72
2022/12/17 20:03:18;;;;;;;58.85;37.10;;;;;;;-8.79;100.00;96727.81;4517556;28;25140;-73
2022/12/17 20:05:46;;;;;;;57.05;38.03;;;;;;;-8.69;100.00;96723.91;4530063;28;25607;-74
2022/12/17 20:08:14;;;;;;;51.35;38.20;;;;;;;-8.61;100.00;96728.31;4649518;28;24520;-74
2022/12/17 20:10:41;;;;;;;50.67;36.00;;;;;;;-8.63;100.00;96732.47;4644751;28;25521;-73
2022/12/17 20:13:09;;;;;;;52.08;34.22;;;;;;;-8.77;100.00;96733.75;4657403;28;25626;-73
2022/12/17 20:15:36;;;;;;;51.37;33.93;;;;;;;-8.84;100.00;96737.75;4675845;28;25445;-73
2022/12/17 20:18:03;;;;;;;46.20;33.90;;;;;;;-8.88;100.00;96730.94;4713265;28;25719;-72
2022/12/17 20:20:30;;;;;;;50.28;34.90;;;;;;;-8.78;100.00;96732.91;4716308;27;25071;-72
2022/12/17 20:22:56;;;;;;;52.30;36.40;;;;;;;-8.74;100.00;96733.00;4712258;28;25201;-72
2022/12/17 20:25:23;;;;;;;45.63;33.92;;;;;;;-8.67;100.00;96732.34;4785656;28;25199;-72
2022/12/17 20:27:50;;;;;;;43.70;32.47;;;;;;;-8.59;100.00;96731.72;4698364;28;25174;-72
2022/12/17 20:30:18;;;;;;;46.80;34.43;;;;;;;-8.73;100.00;96722.13;4725319;28;25377;-72
2022/12/17 20:32:45;;;;;;;50.55;32.88;;;;;;;-8.75;100.00;96722.06;4687609;28;25170;-72
2022/12/17 20:35:12;;;;;;;48.97;33.70;;;;;;;-8.77;100.00;96728.72;4724470;28;25326;-72
2022/12/17 20:37:39;;;;;;;45.88;32.55;;;;;;;-8.77;100.00;96728.72;4720559;28;25143;-72
2022/12/17 20:40:07;;;;;;;53.80;33.70;;;;;;;-9.08;100.00;96727.88;4723244;28;25339;-72
2022/12/17 20:42:34;;;;;;;50.85;33.38;;;;;;;-9.00;100.00;96725.59;4725474;28;25419;-72
2022/12/17 20:45:01;;;;;;;40.50;30.17;;;;;;;-9.04;100.00;96731.34;4706361;28;24800;-72
2022/12/17 20:47:29;;;;;;;34.63;25.97;;;;;;;-9.22;100.00;96731.66;4752999;28;24442;-72
2022/12/17 20:49:56;;;;;;;33.88;23.77;;;;;;;-9.38;100.00;96734.50;4729852;28;25133;-72
2022/12/17 20:52:23;;;;;;;32.00;23.02;;;;;;;-9.36;100.00;96741.28;4730985;28;24496;-72
2022/12/17 20:54:50;;;;;;;31.60;22.20;;;;;;;-9.21;100.00;96727.47;4751098;28;25011;-72
2022/12/17 20:57:17;;;;;;;32.50;22.02;;;;;;;-9.02;100.00;96725.53;4729589;28;25464;-72
2022/12/17 20:59:44;;;;;;;28.48;21.40;;;;;;;-8.98;100.00;96721.44;4727815;28;24493;-72
2022/12/17 21:02:11;;;;;;;33.88;21.55;;;;;;;-8.93;100.00;96732.47;4771932;28;25273;-73
2022/12/17 21:04:39;;;;;;;42.60;22.60;;;;;;;-8.80;100.00;96728.63;4794047;28;25281;-73
2022/12/17 21:07:06;;;;;;;32.25;20.65;;;;;;;-8.64;100.00;96729.88;4771987;28;25045;-72
2022/12/17 21:09:33;;;;;;;31.20;21.80;;;;;;;-8.65;100.00;96731.56;4738064;28;24430;-72
2022/12/17 21:11:59;;;;;;;43.58;26.65;;;;;;;-8.61;100.00;96727.47;4722545;28;24434;-72
2022/12/17 21:14:27;;;;;;;36.88;28.60;;;;;;;-8.77;100.00;96728.72;4729074;28;25117;-73
2022/12/17 21:16:53;;;;;;;40.75;26.98;;;;;;;-8.87;100.00;96727.59;4740691;28;24614;-72
2022/12/17 21:19:20;;;;;;;38.88;26.27;;;;;;;-8.98;100.00;96725.63;4726841;28;24426;-72
2022/12/17 21:21:48;;;;;;;39.40;25.27;;;;;;;-8.98;100.00;96734.00;4762048;28;24864;-72
2022/12/17 21:24:15;;;;;;;37.28;28.35;;;;;;;-8.97;100.00;96729.81;4761351;28;25713;-72
2022/12/17 21:26:44;;;;;;;41.88;27.92;;;;;;;-9.07;100.00;96727.06;4757318;28;25145;-72
2022/12/17 21:29:11;;;;;;;45.50;28.40;;;;;;;-9.08;100.00;96734.56;4676056;28;24531;-72
2022/12/17 21:31:39;;;;;;;45.65;31.00;;;;;;;-9.13;100.00;96724.38;4707410;28;25197;-72
2022/12/17 21:34:07;;;;;;;42.17;31.15;;;;;;;-9.14;100.00;96717.66;4768862;28;25531;-72
2022/12/17 21:36:34;;;;;;;50.20;31.48;;;;;;;-9.11;100.00;96715.25;5101874;28;24801;-72
2022/12/17 21:39:04;;;;;;;40.75;29.33;;;;;;;-9.04;100.00;96721.28;5089889;28;24445;-71
2022/12/17 21:41:33;;;;;;;39.22;27.95;;;;;;;-9.20;100.00;96729.16;5103080;28;24804;-71
2022/12/17 21:44:04;;;;;;;38.03;25.50;;;;;;;-9.09;100.00;96736.19;5078943;28;24497;-73
2022/12/17 21:46:31;;;;;;;44.67;29.73;;;;;;;-8.95;100.00;96741.63;5096499;28;24437;-71
2022/12/17 21:49:00;;;;;;;44.00;31.13;;;;;;;-9.04;100.00;96742.22;5090839;28;24434;-73
2022/12/17 21:51:27;;;;;;;52.53;32.97;;;;;;;-9.06;100.00;96748.84;5092700;28;24461;-72
2022/12/17 21:53:55;;;;;;;61.10;39.00;;;;;;;-9.05;100.00;96740.53;5101235;28;24433;-72
2022/12/17 21:56:24;;;;;;;64.88;40.22;;;;;;;-9.05;100.00;96743.03;5106787;27;24797;-72
2022/12/17 21:58:55;;;;;;;62.70;39.65;;;;;;;-9.28;100.00;96754.03;5093768;28;24437;-72
2022/12/17 22:01:24;;;;;;;59.03;39.55;;;;;;;-9.43;100.00;96761.09;5100952;28;24439;-72
2022/12/17 22:03:52;;;;;;;64.85;41.03;;;;;;;-9.38;100.00;96750.44;5103000;28;24511;-72
2022/12/17 22:06:21;;;;;;;61.03;39.75;;;;;;;-9.63;100.00;96755.50;5098452;28;24436;-72
2022/12/17 22:08:47;;;;;;;64.60;39.83;;;;;;;-9.90;100.00;96762.97;5101749;28;24517;-72
2022/12/17 22:11:16;;;;;;;55.22;36.72;;;;;;;-10.10;100.00;96765.69;5093848;28;24448;-72
2022/12/17 22:14:04;;;;;;;55.33;36.03;;;;;;;-9.92;100.00;96760.44;5082174;28;24434;-72
2022/12/17 22:16:33;;;;;;;55.47;36.25;;;;;;;-9.77;100.00;96760.06;5101906;28;24435;-72
2022/12/17 22:19:02;;;;;;;53.90;38.53;;;;;;;-9.78;100.00;96755.88;5089267;28;25022;-73
2022/12/17 22:21:32;;;;;;;56.30;38.55;;;;;;;-9.82;100.00;96756.59;5094021;28;24980;-72
2022/12/17 22:23:58;;;;;;;57.55;40.33;;;;;;;-9.79;100.00;96754.16;5089133;28;24468;-72
2022/12/17 22:26:25;;;;;;;67.55;44.85;;;;;;;-9.80;100.00;96753.28;5104495;28;24448;-72
2022/12/17 22:28:53;;;;;;;63.83;44.70;;;;;;;-9.76;100.00;96754.25;5094216;28;24516;-72
2022/12/17 22:34:06;;;;;;;71.35;42.40;;;;;;;-10.04;100.00;96747.53;5087410;28;24452;-72
2022/12/17 22:36:33;;;;;;;72.88;46.45;;;;;;;-9.85;100.00;96751.47;5098060;28;24437;-72
2022/12/17 22:39:00;;;;;;;69.88;47.88;;;;;;;-9.89;100.00;96745.50;5091832;28;24429;-72
2022/12/17 22:44:13;;;;;;;61.00;41.47;;;;;;;-9.86;100.00;96754.75;5079370;28;24882;-72
2022/12/17 22:46:40;;;;;;;54.28;37.47;;;;;;;-9.87;100.00;96756.41;5102246;28;24444;-72
2022/12/17 22:49:07;;;;;;;51.85;35.75;;;;;;;-9.92;100.00;96750.41;5094562;28;24552;-72
2022/12/17 22:51:34;;;;;;;58.70;37.70;;;;;;;-9.94;100.00;96747.00;5097898;28;24795;-72
2022/12/17 22:54:02;;;;;;;52.23;36.07;;;;;;;-9.88;100.00;96751.38;5102233;28;25001;-72
2022/12/17 22:56:29;;;;;;;48.90;34.00;;;;;;;-10.06;100.00;96756.63;5099906;28;24444;-72
2022/12/17 22:58:56;;;;;;;42.72;32.03;;;;;;;-10.06;100.00;96761.63;5100145;28;24438;-72
2022/12/17 23:01:24;;;;;;;48.78;31.70;;;;;;;-10.04;100.00;96755.03;5088632;28;24465;-72
2022/12/17 23:03:54;;;;;;;44.60;31.37;;;;;;;-9.90;100.00;96762.97;5102120;28;24438;-72
2022/12/17 23:06:20;;;;;;;48.60;32.87;;;;;;;-9.83;100.00;96757.34;5095432;28;24430;-72
2022/12/17 23:08:47;;;;;;;44.75;33.70;;;;;;;-9.73;100.00;96756.00;5100392;28;24820;-73
2022/12/17 23:11:15;;;;;;;49.95;35.72;;;;;;;-9.68;100.00;96757.00;5091495;28;24438;-72
2022/12/17 23:13:42;;;;;;;48.55;33.58;;;;;;;-9.59;100.00;96757.28;5099368;28;24521;-72
2022/12/17 23:16:12;;;;;;;54.85;36.47;;;;;;;-9.64;100.00;96764.69;5095762;28;24461;-73
2022/12/17 23:18:40;;;;;;;61.70;40.58;;;;;;;-9.76;100.00;96761.75;5097222;28;24876;-72
2022/12/17 23:21:07;;;;;;;50.25;34.30;;;;;;;-9.84;100.00;96758.19;5095879;28;24437;-72
2022/12/17 23:23:34;;;;;;;46.67;32.05;;;;;;;-10.02;100.00;96765.94;5099826;28;24430;-72
2022/12/17 23:26:06;;;;;;;40.63;28.77;;;;;;;-10.03;100.00;96755.06;5100855;28;24433;-72
2022/12/17 23:28:32;;;;;;;46.95;31.95;;;;;;;-10.17;100.00;96763.78;5106977;28;24457;-73
2022/12/17 23:31:04;;;;;;;53.50;35.07;;;;;;;-10.29;100.00;96764.28;5091144;28;24448;-72
2022/12/17 23:33:31;;;;;;;52.47;34.97;;;;;;;-9.95;98.39;96762.84;5095780;28;24446;-72
2022/12/17 23:36:04;;;;;;;49.17;36.28;;;;;;;-10.01;100.00;96758.50;5100582;28;25004;-73
2022/12/17 23:38:31;;;;;;;48.92;32.92;;;;;;;-10.34;100.00;96755.75;5096482;28;24432;-72
2022/12/17 23:41:02;;;;;;;47.63;32.03;;;;;;;-10.43;100.00;96757.94;5099827;28;24796;-72
2022/12/17 23:43:29;;;;;;;47.05;31.13;;;;;;;-10.34;100.00;96760.78;5101990;28;25313;-72
2022/12/17 23:45:56;;;;;;;47.80;31.45;;;;;;;-10.32;100.00;96759.16;5092610;28;24478;-72
2022/12/17 23:48:22;;;;;;;45.10;31.53;;;;;;;-10.44;100.00;96753.75;5095559;28;24823;-72
2022/12/17 23:50:49;;;;;;;51.90;33.33;;;;;;;-10.67;100.00;96764.63;5102106;28;24441;-71
2022/12/17 23:53:17;;;;;;;43.70;30.52;;;;;;;-10.72;100.00;96767.78;5104219;28;24804;-72
2022/12/17 23:55:43;;;;;;;47.38;30.42;;;;;;;-10.63;100.00;96769.78;5106932;28;24433;-72
2022/12/17 23:58:10;;;;;;;45.40;29.88;;;;;;;-10.53;100.00;96764.31;5103096;28;24788;-72
